sensor_id;sensor_type;location;lat;lon;timestamp;P1;durP1;ratioP1;P2;durP2;ratioP2
6374;SDS011;35400;45.472;-122.822;2022-10-15T00:01:13;30.98;;;27.67;;
6374;SDS011;35400;45.472;-122.822;2022-10-15T00:03:42;30.33;;;26.92;;
6374;SDS011;35400;45.472;-122.822;2022-10-15T00:06:10;31.08;;;27.75;;
6374;SDS011;35400;45.472;-122.822;2022-10-15T00:08:39;30.25;;;26.95;;
6374;SDS011;35400;45.472;-122.822;2022-10-15T00:11:07;31.55;;;26.75;;
6374;SDS011;35400;45.472;-122.822;2022-10-15T00:13:40;29.45;;;26.30;;
6374;SDS011;35400;45.472;-122.822;2022-10-15T00:16:08;31.67;;;27.83;;
6374;SDS011;35400;45.472;-122.822;2022-10-15T00:18:38;29.90;;;26.58;;
6374;SDS011;35400;45.472;-122.822;2022-10-15T00:21:06;31.65;;;28.15;;
6374;SDS011;35400;45.472;-122.822;2022-10-15T00:23:35;30.58;;;27.13;;
6374;SDS011;35400;45.472;-122.822;2022-10-15T00:26:09;31.25;;;27.88;;
6374;SDS011;35400;45.472;-122.822;2022-10-15T00:28:37;30.95;;;27.85;;
6374;SDS011;35400;45.472;-122.822;2022-10-15T00:31:06;32.58;;;28.42;;
6374;SDS011;35400;45.472;-122.822;2022-10-15T00:33:35;33.40;;;29.27;;
6374;SDS011;35400;45.472;-122.822;2022-10-15T00:36:03;31.55;;;28.35;;
6374;SDS011;35400;45.472;-122.822;2022-10-15T00:38:36;30.92;;;27.52;;
6374;SDS011;35400;45.472;-122.822;2022-10-15T00:41:04;31.33;;;28.10;;
6374;SDS011;35400;45.472;-122.822;2022-10-15T00:46:23;30.70;;;27.33;;
6374;SDS011;35400;45.472;-122.822;2022-10-15T00:49:12;32.13;;;28.75;;
6374;SDS011;35400;45.472;-122.822;2022-10-15T00:51:59;32.78;;;29.23;;
6374;SDS011;35400;45.472;-122.822;2022-10-15T00:54:42;31.02;;;27.75;;
6374;SDS011;35400;45.472;-122.822;2022-10-15T00:57:13;29.85;;;26.67;;
6374;SDS011;35400;45.472;-122.822;2022-10-15T00:59:43;34.65;;;27.70;;
6374;SDS011;35400;45.472;-122.822;2022-10-15T01:02:16;31.38;;;28.27;;
6374;SDS011;35400;45.472;-122.822;2022-10-15T01:04:44;32.35;;;28.85;;
6374;SDS011;35400;45.472;-122.822;2022-10-15T01:07:12;32.08;;;28.45;;
6374;SDS011;35400;45.472;-122.822;2022-10-15T01:09:39;34.95;;;28.55;;
6374;SDS011;35400;45.472;-122.822;2022-10-15T01:12:10;31.73;;;28.35;;
6374;SDS011;35400;45.472;-122.822;2022-10-15T01:17:43;33.78;;;28.27;;
6374;SDS011;35400;45.472;-122.822;2022-10-15T01:31:52;32.50;;;28.60;;
6374;SDS011;35400;45.472;-122.822;2022-10-15T01:39:27;34.47;;;28.13;;
6374;SDS011;35400;45.472;-122.822;2022-10-15T01:42:03;31.27;;;27.52;;
6374;SDS011;35400;45.472;-122.822;2022-10-15T01:44:37;31.77;;;28.38;;
6374;SDS011;35400;45.472;-122.822;2022-10-15T01:47:23;31.60;;;27.77;;
6374;SDS011;35400;45.472;-122.822;2022-10-15T01:49:57;35.30;;;31.02;;
6374;SDS011;35400;45.472;-122.822;2022-10-15T01:52:29;37.97;;;31.73;;
6374;SDS011;35400;45.472;-122.822;2022-10-15T01:55:03;33.35;;;29.88;;
6374;SDS011;35400;45.472;-122.822;2022-10-15T01:57:35;31.20;;;27.83;;
6374;SDS011;35400;45.472;-122.822;2022-10-15T02:00:04;31.95;;;28.48;;
6374;SDS011;35400;45.472;-122.822;2022-10-15T02:02:38;30.38;;;26.33;;
6374;SDS011;35400;45.472;-122.822;2022-10-15T02:05:18;31.50;;;27.15;;
6374;SDS011;35400;45.472;-122.822;2022-10-15T02:10:37;31.40;;;27.20;;
6374;SDS011;35400;45.472;-122.822;2022-10-15T02:13:18;32.40;;;27.33;;
6374;SDS011;35400;45.472;-122.822;2022-10-15T02:23:51;31.65;;;27.63;;
6374;SDS011;35400;45.472;-122.822;2022-10-15T02:26:23;33.30;;;27.63;;
6374;SDS011;35400;45.472;-122.822;2022-10-15T02:28:54;31.58;;;26.60;;
6374;SDS011;35400;45.472;-122.822;2022-10-15T02:31:24;29.73;;;25.90;;
6374;SDS011;35400;45.472;-122.822;2022-10-15T02:33:55;29.88;;;26.67;;
6374;SDS011;35400;45.472;-122.822;2022-10-15T02:36:27;31.83;;;26.70;;
6374;SDS011;35400;45.472;-122.822;2022-10-15T02:38:55;29.90;;;26.67;;
6374;SDS011;35400;45.472;-122.822;2022-10-15T02:41:26;28.13;;;24.90;;
6374;SDS011;35400;45.472;-122.822;2022-10-15T02:43:55;27.63;;;23.60;;
6374;SDS011;35400;45.472;-122.822;2022-10-15T02:46:22;27.90;;;23.83;;
6374;SDS011;35400;45.472;-122.822;2022-10-15T02:48:48;28.30;;;23.70;;
6374;SDS011;35400;45.472;-122.822;2022-10-15T02:51:16;26.17;;;23.38;;
6374;SDS011;35400;45.472;-122.822;2022-10-15T02:53:43;28.37;;;23.93;;
6374;SDS011;35400;45.472;-122.822;2022-10-15T02:56:10;26.57;;;23.17;;
6374;SDS011;35400;45.472;-122.822;2022-10-15T02:58:37;26.13;;;22.77;;
6374;SDS011;35400;45.472;-122.822;2022-10-15T03:01:04;25.03;;;21.60;;
6374;SDS011;35400;45.472;-122.822;2022-10-15T03:03:32;25.77;;;22.60;;
6374;SDS011;35400;45.472;-122.822;2022-10-15T03:05:59;25.90;;;21.60;;
6374;SDS011;35400;45.472;-122.822;2022-10-15T03:08:26;25.67;;;22.13;;
6374;SDS011;35400;45.472;-122.822;2022-10-15T03:10:53;24.67;;;21.20;;
6374;SDS011;35400;45.472;-122.822;2022-10-15T03:13:20;24.63;;;21.40;;
6374;SDS011;35400;45.472;-122.822;2022-10-15T03:15:50;25.00;;;21.00;;
6374;SDS011;35400;45.472;-122.822;2022-10-15T03:18:19;24.60;;;21.23;;
6374;SDS011;35400;45.472;-122.822;2022-10-15T03:20:56;22.93;;;20.53;;
6374;SDS011;35400;45.472;-122.822;2022-10-15T03:23:23;26.43;;;19.90;;
6374;SDS011;35400;45.472;-122.822;2022-10-15T03:26:00;21.77;;;19.43;;
6374;SDS011;35400;45.472;-122.822;2022-10-15T03:28:27;22.10;;;19.50;;
6374;SDS011;35400;45.472;-122.822;2022-10-15T03:30:54;28.20;;;19.67;;
6374;SDS011;35400;45.472;-122.822;2022-10-15T03:33:21;22.97;;;20.40;;
6374;SDS011;35400;45.472;-122.822;2022-10-15T03:35:48;27.87;;;20.43;;
6374;SDS011;35400;45.472;-122.822;2022-10-15T03:38:15;23.07;;;20.50;;
6374;SDS011;35400;45.472;-122.822;2022-10-15T03:40:42;23.40;;;19.23;;
6374;SDS011;35400;45.472;-122.822;2022-10-15T03:43:23;22.07;;;19.00;;
6374;SDS011;35400;45.472;-122.822;2022-10-15T03:45:51;20.10;;;17.70;;
6374;SDS011;35400;45.472;-122.822;2022-10-15T03:48:21;21.37;;;17.53;;
6374;SDS011;35400;45.472;-122.822;2022-10-15T03:50:48;22.17;;;17.50;;
6374;SDS011;35400;45.472;-122.822;2022-10-15T03:53:15;18.73;;;16.33;;
6374;SDS011;35400;45.472;-122.822;2022-10-15T03:55:42;20.67;;;16.47;;
6374;SDS011;35400;45.472;-122.822;2022-10-15T03:58:09;20.50;;;17.20;;
6374;SDS011;35400;45.472;-122.822;2022-10-15T04:00:42;16.67;;;14.77;;
6374;SDS011;35400;45.472;-122.822;2022-10-15T04:03:10;16.87;;;14.97;;
6374;SDS011;35400;45.472;-122.822;2022-10-15T04:05:37;21.63;;;16.60;;
6374;SDS011;35400;45.472;-122.822;2022-10-15T04:08:07;19.93;;;14.50;;
6374;SDS011;35400;45.472;-122.822;2022-10-15T04:10:38;17.87;;;13.73;;
6374;SDS011;35400;45.472;-122.822;2022-10-15T04:13:05;14.13;;;12.63;;
6374;SDS011;35400;45.472;-122.822;2022-10-15T04:15:33;16.83;;;13.40;;
6374;SDS011;35400;45.472;-122.822;2022-10-15T04:18:06;19.70;;;13.03;;
6374;SDS011;35400;45.472;-122.822;2022-10-15T04:20:35;19.00;;;13.50;;
6374;SDS011;35400;45.472;-122.822;2022-10-15T04:23:14;14.63;;;12.07;;
6374;SDS011;35400;45.472;-122.822;2022-10-15T04:25:57;13.23;;;11.73;;
6374;SDS011;35400;45.472;-122.822;2022-10-15T04:28:25;12.73;;;11.03;;
6374;SDS011;35400;45.472;-122.822;2022-10-15T04:30:56;15.23;;;11.80;;
6374;SDS011;35400;45.472;-122.822;2022-10-15T04:33:24;12.97;;;11.07;;
6374;SDS011;35400;45.472;-122.822;2022-10-15T04:36:02;12.37;;;11.00;;
6374;SDS011;35400;45.472;-122.822;2022-10-15T04:38:54;13.70;;;12.23;;
6374;SDS011;35400;45.472;-122.822;2022-10-15T04:41:36;15.37;;;10.67;;
6374;SDS011;35400;45.472;-122.822;2022-10-15T04:44:07;14.17;;;11.57;;
6374;SDS011;35400;45.472;-122.822;2022-10-15T04:46:35;12.37;;;10.37;;
6374;SDS011;35400;45.472;-122.822;2022-10-15T04:49:18;11.20;;;8.47;;
6374;SDS011;35400;45.472;-122.822;2022-10-15T04:51:44;12.47;;;9.83;;
6374;SDS011;35400;45.472;-122.822;2022-10-15T04:54:15;11.27;;;8.70;;
6374;SDS011;35400;45.472;-122.822;2022-10-15T04:56:57;12.83;;;9.30;;
6374;SDS011;35400;45.472;-122.822;2022-10-15T04:59:24;9.63;;;8.47;;
6374;SDS011;35400;45.472;-122.822;2022-10-15T05:02:09;12.73;;;8.90;;
6374;SDS011;35400;45.472;-122.822;2022-10-15T05:04:37;9.87;;;8.40;;
6374;SDS011;35400;45.472;-122.822;2022-10-15T05:07:04;9.53;;;8.53;;
6374;SDS011;35400;45.472;-122.822;2022-10-15T05:09:31;12.30;;;9.23;;
6374;SDS011;35400;45.472;-122.822;2022-10-15T05:11:58;11.57;;;9.20;;
6374;SDS011;35400;45.472;-122.822;2022-10-15T05:14:26;10.90;;;8.70;;
6374;SDS011;35400;45.472;-122.822;2022-10-15T05:17:29;10.93;;;8.77;;
6374;SDS011;35400;45.472;-122.822;2022-10-15T05:19:57;11.80;;;9.20;;
6374;SDS011;35400;45.472;-122.822;2022-10-15T05:22:26;10.10;;;8.63;;
6374;SDS011;35400;45.472;-122.822;2022-10-15T05:24:57;10.20;;;8.50;;
6374;SDS011;35400;45.472;-122.822;2022-10-15T05:27:29;10.30;;;7.80;;
6374;SDS011;35400;45.472;-122.822;2022-10-15T05:29:57;9.50;;;8.50;;
6374;SDS011;35400;45.472;-122.822;2022-10-15T05:32:32;9.80;;;7.20;;
6374;SDS011;35400;45.472;-122.822;2022-10-15T05:34:59;9.33;;;8.23;;
6374;SDS011;35400;45.472;-122.822;2022-10-15T05:37:40;10.73;;;8.43;;
6374;SDS011;35400;45.472;-122.822;2022-10-15T05:40:07;10.13;;;8.50;;
6374;SDS011;35400;45.472;-122.822;2022-10-15T05:42:34;9.97;;;8.17;;
6374;SDS011;35400;45.472;-122.822;2022-10-15T05:45:01;11.10;;;8.10;;
6374;SDS011;35400;45.472;-122.822;2022-10-15T05:47:28;10.03;;;8.57;;
6374;SDS011;35400;45.472;-122.822;2022-10-15T05:50:11;8.97;;;8.03;;
6374;SDS011;35400;45.472;-122.822;2022-10-15T05:52:42;9.87;;;8.30;;
6374;SDS011;35400;45.472;-122.822;2022-10-15T05:55:32;8.90;;;8.00;;
6374;SDS011;35400;45.472;-122.822;2022-10-15T05:58:02;10.13;;;7.80;;
6374;SDS011;35400;45.472;-122.822;2022-10-15T06:00:29;9.37;;;8.10;;
6374;SDS011;35400;45.472;-122.822;2022-10-15T06:02:57;9.17;;;8.27;;
6374;SDS011;35400;45.472;-122.822;2022-10-15T06:05:24;11.80;;;8.97;;
6374;SDS011;35400;45.472;-122.822;2022-10-15T06:07:51;9.60;;;8.13;;
6374;SDS011;35400;45.472;-122.822;2022-10-15T06:10:18;9.87;;;8.30;;
6374;SDS011;35400;45.472;-122.822;2022-10-15T06:12:49;11.70;;;9.43;;
6374;SDS011;35400;45.472;-122.822;2022-10-15T06:15:16;9.57;;;8.53;;
6374;SDS011;35400;45.472;-122.822;2022-10-15T06:17:44;9.70;;;8.70;;
6374;SDS011;35400;45.472;-122.822;2022-10-15T06:20:11;11.20;;;8.47;;
6374;SDS011;35400;45.472;-122.822;2022-10-15T06:22:38;9.80;;;8.77;;
6374;SDS011;35400;45.472;-122.822;2022-10-15T06:25:05;9.63;;;8.63;;
6374;SDS011;35400;45.472;-122.822;2022-10-15T06:27:32;10.23;;;8.50;;
6374;SDS011;35400;45.472;-122.822;2022-10-15T06:29:59;10.70;;;8.97;;
6374;SDS011;35400;45.472;-122.822;2022-10-15T06:32:26;9.37;;;8.00;;
6374;SDS011;35400;45.472;-122.822;2022-10-15T06:34:53;12.57;;;9.20;;
6374;SDS011;35400;45.472;-122.822;2022-10-15T06:37:19;11.03;;;9.00;;
6374;SDS011;35400;45.472;-122.822;2022-10-15T06:39:46;10.77;;;9.10;;
6374;SDS011;35400;45.472;-122.822;2022-10-15T06:42:13;10.83;;;9.13;;
6374;SDS011;35400;45.472;-122.822;2022-10-15T06:44:40;9.50;;;8.50;;
6374;SDS011;35400;45.472;-122.822;2022-10-15T06:47:07;9.97;;;8.53;;
6374;SDS011;35400;45.472;-122.822;2022-10-15T06:49:34;9.70;;;8.40;;
6374;SDS011;35400;45.472;-122.822;2022-10-15T06:52:00;9.70;;;8.53;;
6374;SDS011;35400;45.472;-122.822;2022-10-15T06:54:27;10.10;;;8.53;;
6374;SDS011;35400;45.472;-122.822;2022-10-15T06:56:54;10.73;;;8.27;;
6374;SDS011;35400;45.472;-122.822;2022-10-15T06:59:21;13.80;;;9.20;;
6374;SDS011;35400;45.472;-122.822;2022-10-15T07:01:48;10.63;;;9.00;;
6374;SDS011;35400;45.472;-122.822;2022-10-15T07:04:15;14.23;;;10.33;;
6374;SDS011;35400;45.472;-122.822;2022-10-15T07:06:41;12.40;;;10.13;;
6374;SDS011;35400;45.472;-122.822;2022-10-15T07:09:08;13.63;;;10.70;;
6374;SDS011;35400;45.472;-122.822;2022-10-15T07:11:35;13.97;;;10.73;;
6374;SDS011;35400;45.472;-122.822;2022-10-15T07:14:02;13.47;;;10.90;;
6374;SDS011;35400;45.472;-122.822;2022-10-15T07:16:30;17.23;;;12.00;;
6374;SDS011;35400;45.472;-122.822;2022-10-15T07:18:57;18.00;;;12.23;;
6374;SDS011;35400;45.472;-122.822;2022-10-15T07:21:24;13.97;;;9.90;;
6374;SDS011;35400;45.472;-122.822;2022-10-15T07:23:51;13.67;;;10.13;;
6374;SDS011;35400;45.472;-122.822;2022-10-15T07:26:17;16.67;;;11.73;;
6374;SDS011;35400;45.472;-122.822;2022-10-15T07:28:44;19.00;;;16.97;;
6374;SDS011;35400;45.472;-122.822;2022-10-15T07:31:11;26.47;;;21.50;;
6374;SDS011;35400;45.472;-122.822;2022-10-15T07:33:38;20.20;;;16.20;;
6374;SDS011;35400;45.472;-122.822;2022-10-15T07:36:09;31.93;;;22.00;;
6374;SDS011;35400;45.472;-122.822;2022-10-15T07:38:37;45.20;;;29.60;;
6374;SDS011;35400;45.472;-122.822;2022-10-15T07:41:08;38.33;;;27.27;;
6374;SDS011;35400;45.472;-122.822;2022-10-15T07:43:40;24.70;;;19.07;;
6374;SDS011;35400;45.472;-122.822;2022-10-15T07:46:08;23.50;;;18.30;;
6374;SDS011;35400;45.472;-122.822;2022-10-15T07:48:35;25.90;;;18.03;;
6374;SDS011;35400;45.472;-122.822;2022-10-15T07:51:04;22.20;;;16.13;;
6374;SDS011;35400;45.472;-122.822;2022-10-15T07:53:32;18.83;;;13.00;;
6374;SDS011;35400;45.472;-122.822;2022-10-15T07:56:00;16.67;;;12.87;;
6374;SDS011;35400;45.472;-122.822;2022-10-15T07:58:32;17.30;;;13.23;;
6374;SDS011;35400;45.472;-122.822;2022-10-15T08:01:00;16.77;;;12.63;;
6374;SDS011;35400;45.472;-122.822;2022-10-15T08:03:28;14.70;;;12.63;;
6374;SDS011;35400;45.472;-122.822;2022-10-15T08:05:55;18.97;;;13.57;;
6374;SDS011;35400;45.472;-122.822;2022-10-15T08:08:27;15.53;;;11.83;;
6374;SDS011;35400;45.472;-122.822;2022-10-15T08:10:54;16.63;;;12.23;;
6374;SDS011;35400;45.472;-122.822;2022-10-15T08:13:22;17.43;;;12.27;;
6374;SDS011;35400;45.472;-122.822;2022-10-15T08:15:53;13.97;;;11.80;;
6374;SDS011;35400;45.472;-122.822;2022-10-15T08:18:20;14.80;;;11.23;;
6374;SDS011;35400;45.472;-122.822;2022-10-15T08:20:47;13.13;;;11.13;;
6374;SDS011;35400;45.472;-122.822;2022-10-15T08:23:14;12.43;;;9.93;;
6374;SDS011;35400;45.472;-122.822;2022-10-15T08:25:42;14.83;;;11.30;;
6374;SDS011;35400;45.472;-122.822;2022-10-15T08:28:11;13.47;;;10.20;;
6374;SDS011;35400;45.472;-122.822;2022-10-15T08:30:37;10.93;;;9.47;;
6374;SDS011;35400;45.472;-122.822;2022-10-15T08:33:10;12.60;;;10.00;;
6374;SDS011;35400;45.472;-122.822;2022-10-15T08:35:39;11.70;;;9.50;;
6374;SDS011;35400;45.472;-122.822;2022-10-15T08:38:09;10.90;;;9.77;;
6374;SDS011;35400;45.472;-122.822;2022-10-15T08:40:36;11.40;;;8.97;;
6374;SDS011;35400;45.472;-122.822;2022-10-15T08:43:41;11.23;;;9.57;;
6374;SDS011;35400;45.472;-122.822;2022-10-15T08:46:04;9.27;;;8.27;;
6374;SDS011;35400;45.472;-122.822;2022-10-15T08:48:40;9.90;;;8.67;;
6374;SDS011;35400;45.472;-122.822;2022-10-15T08:53:39;10.47;;;8.87;;
6374;SDS011;35400;45.472;-122.822;2022-10-15T08:56:53;12.13;;;9.17;;
6374;SDS011;35400;45.472;-122.822;2022-10-15T08:59:11;12.00;;;9.43;;
6374;SDS011;35400;45.472;-122.822;2022-10-15T09:01:58;11.10;;;9.03;;
6374;SDS011;35400;45.472;-122.822;2022-10-15T09:07:20;10.80;;;9.17;;
6374;SDS011;35400;45.472;-122.822;2022-10-15T09:10:17;12.53;;;9.30;;
6374;SDS011;35400;45.472;-122.822;2022-10-15T09:15:36;12.93;;;9.50;;
6374;SDS011;35400;45.472;-122.822;2022-10-15T09:18:16;11.97;;;8.47;;
6374;SDS011;35400;45.472;-122.822;2022-10-15T09:20:48;13.63;;;9.97;;
6374;SDS011;35400;45.472;-122.822;2022-10-15T09:23:17;10.23;;;9.20;;
6374;SDS011;35400;45.472;-122.822;2022-10-15T09:34:58;12.53;;;10.97;;
6374;SDS011;35400;45.472;-122.822;2022-10-15T09:43:08;9.80;;;8.80;;
6374;SDS011;35400;45.472;-122.822;2022-10-15T09:45:37;11.40;;;9.43;;
6374;SDS011;35400;45.472;-122.822;2022-10-15T09:48:11;12.67;;;9.43;;
6374;SDS011;35400;45.472;-122.822;2022-10-15T09:50:45;10.57;;;8.60;;
6374;SDS011;35400;45.472;-122.822;2022-10-15T09:53:39;10.53;;;9.17;;
6374;SDS011;35400;45.472;-122.822;2022-10-15T09:58:54;11.90;;;9.50;;
6374;SDS011;35400;45.472;-122.822;2022-10-15T10:01:24;12.33;;;9.53;;
6374;SDS011;35400;45.472;-122.822;2022-10-15T10:06:51;13.33;;;10.40;;
6374;SDS011;35400;45.472;-122.822;2022-10-15T10:09:21;11.97;;;9.13;;
6374;SDS011;35400;45.472;-122.822;2022-10-15T10:12:01;10.30;;;9.20;;
6374;SDS011;35400;45.472;-122.822;2022-10-15T10:14:32;9.83;;;8.80;;
6374;SDS011;35400;45.472;-122.822;2022-10-15T10:20:31;10.57;;;9.10;;
6374;SDS011;35400;45.472;-122.822;2022-10-15T10:28:13;11.60;;;9.13;;
6374;SDS011;35400;45.472;-122.822;2022-10-15T10:33:26;11.83;;;9.20;;
6374;SDS011;35400;45.472;-122.822;2022-10-15T10:35:55;11.50;;;9.30;;
6374;SDS011;35400;45.472;-122.822;2022-10-15T10:38:59;11.53;;;9.13;;
6374;SDS011;35400;45.472;-122.822;2022-10-15T10:41:21;11.00;;;8.90;;
6374;SDS011;35400;45.472;-122.822;2022-10-15T10:43:52;10.27;;;8.23;;
6374;SDS011;35400;45.472;-122.822;2022-10-15T10:46:21;10.87;;;9.30;;
6374;SDS011;35400;45.472;-122.822;2022-10-15T10:48:49;11.50;;;8.87;;
6374;SDS011;35400;45.472;-122.822;2022-10-15T10:51:18;12.07;;;8.27;;
6374;SDS011;35400;45.472;-122.822;2022-10-15T10:53:53;12.43;;;9.03;;
6374;SDS011;35400;45.472;-122.822;2022-10-15T10:56:44;10.00;;;8.50;;
6374;SDS011;35400;45.472;-122.822;2022-10-15T10:59:13;12.07;;;8.70;;
6374;SDS011;35400;45.472;-122.822;2022-10-15T11:01:56;15.53;;;11.87;;
6374;SDS011;35400;45.472;-122.822;2022-10-15T11:04:24;14.43;;;9.83;;
6374;SDS011;35400;45.472;-122.822;2022-10-15T11:10:07;10.30;;;8.60;;
6374;SDS011;35400;45.472;-122.822;2022-10-15T11:18:33;9.20;;;8.23;;
6374;SDS011;35400;45.472;-122.822;2022-10-15T11:21:18;10.40;;;8.40;;
6374;SDS011;35400;45.472;-122.822;2022-10-15T11:24:11;12.93;;;9.00;;
6374;SDS011;35400;45.472;-122.822;2022-10-15T11:33:06;13.73;;;9.97;;
6374;SDS011;35400;45.472;-122.822;2022-10-15T11:35:45;11.00;;;9.13;;
6374;SDS011;35400;45.472;-122.822;2022-10-15T11:38:22;10.10;;;7.97;;
6374;SDS011;35400;45.472;-122.822;2022-10-15T11:41:49;10.60;;;8.07;;
6374;SDS011;35400;45.472;-122.822;2022-10-15T11:54:56;10.30;;;8.43;;
6374;SDS011;35400;45.472;-122.822;2022-10-15T11:57:32;13.07;;;10.60;;
6374;SDS011;35400;45.472;-122.822;2022-10-15T12:00:14;13.43;;;10.13;;
6374;SDS011;35400;45.472;-122.822;2022-10-15T12:02:45;11.37;;;9.20;;
6374;SDS011;35400;45.472;-122.822;2022-10-15T12:05:26;10.50;;;8.70;;
6374;SDS011;35400;45.472;-122.822;2022-10-15T12:07:59;10.97;;;8.37;;
6374;SDS011;35400;45.472;-122.822;2022-10-15T12:16:15;10.27;;;8.33;;
6374;SDS011;35400;45.472;-122.822;2022-10-15T12:18:59;9.93;;;8.03;;
6374;SDS011;35400;45.472;-122.822;2022-10-15T12:24:08;9.60;;;7.70;;
6374;SDS011;35400;45.472;-122.822;2022-10-15T12:32:37;11.30;;;8.47;;
6374;SDS011;35400;45.472;-122.822;2022-10-15T12:41:09;9.30;;;8.23;;
6374;SDS011;35400;45.472;-122.822;2022-10-15T12:43:45;10.80;;;8.20;;
6374;SDS011;35400;45.472;-122.822;2022-10-15T12:46:18;10.80;;;8.37;;
6374;SDS011;35400;45.472;-122.822;2022-10-15T12:48:45;10.40;;;8.20;;
6374;SDS011;35400;45.472;-122.822;2022-10-15T12:53:43;9.53;;;7.90;;
6374;SDS011;35400;45.472;-122.822;2022-10-15T12:58:51;10.00;;;8.43;;
6374;SDS011;35400;45.472;-122.822;2022-10-15T13:11:43;11.73;;;8.80;;
6374;SDS011;35400;45.472;-122.822;2022-10-15T13:14:33;10.50;;;7.80;;
6374;SDS011;35400;45.472;-122.822;2022-10-15T13:17:14;10.53;;;8.30;;
6374;SDS011;35400;45.472;-122.822;2022-10-15T13:19:55;8.47;;;7.43;;
6374;SDS011;35400;45.472;-122.822;2022-10-15T13:22:26;10.63;;;7.87;;
6374;SDS011;35400;45.472;-122.822;2022-10-15T13:24:54;10.60;;;7.40;;
6374;SDS011;35400;45.472;-122.822;2022-10-15T13:29:57;11.10;;;8.80;;
6374;SDS011;35400;45.472;-122.822;2022-10-15T13:32:30;12.63;;;8.70;;
6374;SDS011;35400;45.472;-122.822;2022-10-15T13:35:01;12.63;;;9.17;;
6374;SDS011;35400;45.472;-122.822;2022-10-15T13:37:36;12.17;;;8.70;;
6374;SDS011;35400;45.472;-122.822;2022-10-15T13:40:05;10.53;;;7.40;;
6374;SDS011;35400;45.472;-122.822;2022-10-15T13:42:32;10.07;;;7.97;;
6374;SDS011;35400;45.472;-122.822;2022-10-15T13:45:00;11.23;;;8.77;;
6374;SDS011;35400;45.472;-122.822;2022-10-15T13:47:49;13.43;;;9.03;;
6374;SDS011;35400;45.472;-122.822;2022-10-15T13:50:35;10.77;;;8.70;;
6374;SDS011;35400;45.472;-122.822;2022-10-15T13:55:42;11.80;;;8.33;;
6374;SDS011;35400;45.472;-122.822;2022-10-15T13:58:16;11.13;;;8.17;;
6374;SDS011;35400;45.472;-122.822;2022-10-15T14:01:07;12.67;;;8.83;;
6374;SDS011;35400;45.472;-122.822;2022-10-15T14:03:36;10.93;;;8.40;;
6374;SDS011;35400;45.472;-122.822;2022-10-15T14:06:08;8.90;;;7.40;;
6374;SDS011;35400;45.472;-122.822;2022-10-15T14:08:42;13.20;;;9.03;;
6374;SDS011;35400;45.472;-122.822;2022-10-15T14:11:10;12.27;;;8.37;;
6374;SDS011;35400;45.472;-122.822;2022-10-15T14:18:50;11.37;;;8.50;;
6374;SDS011;35400;45.472;-122.822;2022-10-15T14:21:20;10.03;;;8.33;;
6374;SDS011;35400;45.472;-122.822;2022-10-15T14:24:06;10.40;;;8.43;;
6374;SDS011;35400;45.472;-122.822;2022-10-15T14:26:45;11.23;;;8.80;;
6374;SDS011;35400;45.472;-122.822;2022-10-15T14:29:15;12.10;;;8.90;;
6374;SDS011;35400;45.472;-122.822;2022-10-15T14:31:46;10.20;;;8.70;;
6374;SDS011;35400;45.472;-122.822;2022-10-15T14:40:22;12.83;;;8.47;;
6374;SDS011;35400;45.472;-122.822;2022-10-15T14:45:25;10.53;;;8.67;;
6374;SDS011;35400;45.472;-122.822;2022-10-15T14:47:56;11.07;;;8.40;;
6374;SDS011;35400;45.472;-122.822;2022-10-15T14:50:26;12.03;;;8.43;;
6374;SDS011;35400;45.472;-122.822;2022-10-15T14:52:58;12.43;;;8.57;;
6374;SDS011;35400;45.472;-122.822;2022-10-15T14:55:34;10.97;;;9.00;;
6374;SDS011;35400;45.472;-122.822;2022-10-15T14:58:07;11.60;;;8.80;;
6374;SDS011;35400;45.472;-122.822;2022-10-15T15:00:42;10.50;;;8.60;;
6374;SDS011;35400;45.472;-122.822;2022-10-15T15:03:19;12.20;;;9.33;;
6374;SDS011;35400;45.472;-122.822;2022-10-15T15:05:51;12.17;;;8.77;;
6374;SDS011;35400;45.472;-122.822;2022-10-15T15:08:23;11.47;;;8.70;;
6374;SDS011;35400;45.472;-122.822;2022-10-15T15:10:51;11.63;;;8.53;;
6374;SDS011;35400;45.472;-122.822;2022-10-15T15:13:22;11.57;;;9.20;;
6374;SDS011;35400;45.472;-122.822;2022-10-15T15:15:51;14.73;;;8.67;;
6374;SDS011;35400;45.472;-122.822;2022-10-15T15:18:18;10.10;;;8.30;;
6374;SDS011;35400;45.472;-122.822;2022-10-15T15:20:46;12.97;;;8.97;;
6374;SDS011;35400;45.472;-122.822;2022-10-15T15:23:17;10.93;;;8.40;;
6374;SDS011;35400;45.472;-122.822;2022-10-15T15:25:53;9.57;;;8.30;;
6374;SDS011;35400;45.472;-122.822;2022-10-15T15:28:21;10.27;;;8.97;;
6374;SDS011;35400;45.472;-122.822;2022-10-15T15:30:50;11.40;;;8.57;;
6374;SDS011;35400;45.472;-122.822;2022-10-15T15:33:25;14.30;;;8.93;;
6374;SDS011;35400;45.472;-122.822;2022-10-15T15:36:03;13.83;;;9.47;;
6374;SDS011;35400;45.472;-122.822;2022-10-15T15:38:30;13.47;;;9.43;;
6374;SDS011;35400;45.472;-122.822;2022-10-15T15:43:41;11.47;;;9.17;;
6374;SDS011;35400;45.472;-122.822;2022-10-15T15:46:08;12.97;;;9.17;;
6374;SDS011;35400;45.472;-122.822;2022-10-15T15:48:35;13.10;;;9.73;;
6374;SDS011;35400;45.472;-122.822;2022-10-15T15:51:03;15.33;;;10.33;;
6374;SDS011;35400;45.472;-122.822;2022-10-15T15:53:51;13.10;;;10.67;;
6374;SDS011;35400;45.472;-122.822;2022-10-15T15:56:18;14.80;;;10.93;;
6374;SDS011;35400;45.472;-122.822;2022-10-15T15:58:45;17.77;;;11.70;;
6374;SDS011;35400;45.472;-122.822;2022-10-15T16:01:18;17.03;;;10.43;;
6374;SDS011;35400;45.472;-122.822;2022-10-15T16:03:45;16.60;;;10.93;;
6374;SDS011;35400;45.472;-122.822;2022-10-15T16:06:12;13.77;;;10.03;;
6374;SDS011;35400;45.472;-122.822;2022-10-15T16:08:39;13.80;;;10.80;;
6374;SDS011;35400;45.472;-122.822;2022-10-15T16:11:05;15.00;;;10.47;;
6374;SDS011;35400;45.472;-122.822;2022-10-15T16:13:32;13.97;;;10.43;;
6374;SDS011;35400;45.472;-122.822;2022-10-15T16:15:59;14.17;;;10.20;;
6374;SDS011;35400;45.472;-122.822;2022-10-15T16:18:26;16.57;;;11.07;;
6374;SDS011;35400;45.472;-122.822;2022-10-15T16:20:53;15.33;;;11.47;;
6374;SDS011;35400;45.472;-122.822;2022-10-15T16:23:20;17.00;;;11.80;;
6374;SDS011;35400;45.472;-122.822;2022-10-15T16:25:47;17.63;;;11.97;;
6374;SDS011;35400;45.472;-122.822;2022-10-15T16:28:14;14.57;;;11.70;;
6374;SDS011;35400;45.472;-122.822;2022-10-15T16:30:40;18.67;;;12.77;;
6374;SDS011;35400;45.472;-122.822;2022-10-15T16:33:07;19.23;;;11.73;;
6374;SDS011;35400;45.472;-122.822;2022-10-15T16:35:34;19.20;;;12.23;;
6374;SDS011;35400;45.472;-122.822;2022-10-15T16:38:01;16.77;;;12.50;;
6374;SDS011;35400;45.472;-122.822;2022-10-15T16:40:28;12.83;;;11.20;;
6374;SDS011;35400;45.472;-122.822;2022-10-15T16:42:54;15.53;;;11.70;;
6374;SDS011;35400;45.472;-122.822;2022-10-15T16:45:21;17.97;;;12.47;;
6374;SDS011;35400;45.472;-122.822;2022-10-15T16:47:48;18.80;;;12.67;;
6374;SDS011;35400;45.472;-122.822;2022-10-15T16:50:15;16.63;;;12.63;;
6374;SDS011;35400;45.472;-122.822;2022-10-15T16:52:42;17.77;;;12.03;;
6374;SDS011;35400;45.472;-122.822;2022-10-15T16:55:09;13.73;;;12.23;;
6374;SDS011;35400;45.472;-122.822;2022-10-15T16:57:36;17.70;;;12.90;;
6374;SDS011;35400;45.472;-122.822;2022-10-15T17:00:03;15.83;;;12.30;;
6374;SDS011;35400;45.472;-122.822;2022-10-15T17:02:30;18.93;;;13.27;;
6374;SDS011;35400;45.472;-122.822;2022-10-15T17:04:57;17.17;;;12.53;;